SKUC/AUC METAR and TAF weather

Enter ICAO airport designator
Station Type Date Time Source
SKUC METAR 2020/09/19 20:00 UTC NOAA

SKUC 192000Z 10003KT 9999 SCT018 33/24 A2972


Station Type Date Time Source
SKUC Decoded METAR 2020/09/19 20:00 UTC NOAA

Arauca / Santiago Perez, Colombia (SKUC) 07-04N 070-44W 128M
Sep 19, 2020 - 04:00 PM EDT / 2020.09.19 2000 UTC
Wind: from the E (100 degrees) at 3 MPH (3 KT):0
Visibility: greater than 7 mile(s):0
Sky conditions: partly cloudy
Temperature: 91 F (33 C)
Heat index: 101.5 F (38.6 C):1
Dew Point: 75 F (24 C)
Relative Humidity: 59%
Pressure (altimeter): 29.72 in. Hg (1006 hPa)
ob: SKUC 192000Z 10003KT 9999 SCT018 33/24 A2972
cycle: 20

Station Type Date Time Source
SKUC TAF UTC NOAA

Error!

Example: see airport list